createdAt,value
2022-11-12T00:01:54.857Z,8.3
2022-11-12T00:03:52.397Z,8.2
2022-11-12T00:05:58.051Z,8.3
2022-11-12T00:07:55.548Z,8.2
2022-11-12T00:09:53.141Z,8.1
2022-11-12T00:12:20.163Z,8
2022-11-12T00:14:17.711Z,8.1
2022-11-12T00:16:15.318Z,8.1
2022-11-12T00:18:20.837Z,8
2022-11-12T00:22:16.056Z,8.1
2022-11-12T00:24:13.668Z,8.2
2022-11-12T00:26:11.290Z,8.1
2022-11-12T00:32:11.968Z,8
2022-11-12T00:34:09.584Z,8.1
2022-11-12T00:40:02.431Z,8.1
2022-11-12T00:42:00.026Z,8.1
2022-11-12T00:43:57.632Z,8.1
2022-11-12T00:46:03.132Z,8.1
2022-11-12T00:48:00.743Z,8
2022-11-12T00:49:58.334Z,8
2022-11-12T00:51:55.959Z,8
2022-11-12T00:53:53.563Z,8
2022-11-12T00:55:51.148Z,8
2022-11-12T00:59:54.255Z,8
2022-11-12T01:01:51.860Z,8
2022-11-12T01:03:49.509Z,7.9
2022-11-12T01:04:52.261Z,7.9
2022-11-12T01:06:49.949Z,7.9
2022-11-12T01:10:45.044Z,8
2022-11-12T01:12:50.535Z,8.2
2022-11-12T01:14:48.147Z,8.2
2022-11-12T01:16:45.774Z,8.2
2022-11-12T01:18:43.382Z,8.2
2022-11-12T01:20:40.983Z,8.1
2022-11-12T01:22:38.554Z,8
2022-11-12T01:26:41.652Z,7.8
2022-11-12T01:28:39.241Z,7.9
2022-11-12T01:32:34.426Z,8
2022-11-12T01:34:32.021Z,8.1
2022-11-12T01:38:27.774Z,8
2022-11-12T01:40:32.720Z,7.9
2022-11-12T01:42:30.326Z,7.9
2022-11-12T01:44:27.943Z,7.8
2022-11-12T01:46:25.510Z,7.8
2022-11-12T01:48:23.169Z,7.7
2022-11-12T01:50:20.698Z,7.6
2022-11-12T01:54:23.815Z,7.6
2022-11-12T01:56:21.496Z,7.6
2022-11-12T01:58:19.024Z,7.7
2022-11-12T01:59:21.769Z,7.7
2022-11-12T02:01:19.440Z,7.7
2022-11-12T02:03:16.953Z,7.7
2022-11-12T02:05:14.567Z,7.7
2022-11-12T02:07:20.114Z,7.6
2022-11-12T02:09:17.696Z,7.7
2022-11-12T02:11:15.305Z,7.7
2022-11-12T02:13:12.917Z,7.6
2022-11-12T02:15:10.525Z,7.6
2022-11-12T02:17:08.106Z,7.7
2022-11-12T02:19:05.722Z,7.8
2022-11-12T02:21:11.229Z,7.8
2022-11-12T02:25:06.423Z,7.8
2022-11-12T02:27:04.033Z,7.9
2022-11-12T02:29:01.625Z,7.8
2022-11-12T02:30:59.226Z,7.8
2022-11-12T02:32:56.814Z,7.8
2022-11-12T02:35:02.343Z,7.6
2022-11-12T02:36:59.903Z,7.7
2022-11-12T02:38:57.505Z,7.8
2022-11-12T02:44:50.328Z,7.6
2022-11-12T02:50:51.020Z,7.7
2022-11-12T02:52:48.633Z,7.6
2022-11-12T02:53:51.345Z,7.6
2022-11-12T02:55:48.955Z,7.6
2022-11-12T02:59:44.178Z,7.6
2022-11-12T03:01:49.720Z,7.6
2022-11-12T03:03:47.317Z,7.5
2022-11-12T03:05:44.914Z,7.5
2022-11-12T03:07:42.503Z,7.5
2022-11-12T03:09:40.102Z,7.4
2022-11-12T03:17:38.398Z,7.3
2022-11-12T03:19:35.976Z,7.3
2022-11-12T03:21:33.579Z,7.3
2022-11-12T03:23:31.184Z,7.2
2022-11-12T03:25:28.820Z,7.3
2022-11-12T03:27:26.419Z,7.2
2022-11-12T03:29:31.896Z,7.2
2022-11-12T03:31:29.510Z,7.3
2022-11-12T03:33:27.091Z,7.3
2022-11-12T03:35:24.682Z,7.3
2022-11-12T03:37:22.294Z,7.1
2022-11-12T03:39:19.899Z,7.1
2022-11-12T03:43:23.001Z,7.1
2022-11-12T03:49:41.090Z,7.1
2022-11-12T03:51:38.714Z,7.1
2022-11-12T03:53:36.287Z,7.2
2022-11-12T03:57:39.386Z,7
2022-11-12T03:59:36.994Z,7.1
2022-11-12T04:01:34.643Z,7.1
2022-11-12T04:07:27.383Z,7
2022-11-12T04:09:32.855Z,7
2022-11-12T04:11:30.447Z,7
2022-11-12T04:13:28.054Z,7.1
2022-11-12T04:15:25.661Z,7
2022-11-12T04:17:24.803Z,7.1
2022-11-12T04:19:22.376Z,7
2022-11-12T04:23:25.423Z,7
2022-11-12T04:25:23.002Z,6.9
2022-11-12T04:27:20.612Z,7.1
2022-11-12T04:33:13.395Z,7
2022-11-12T04:35:11.075Z,6.9
2022-11-12T04:37:20.972Z,6.9
2022-11-12T04:39:14.110Z,6.8
2022-11-12T04:41:11.750Z,6.9
2022-11-12T04:42:14.484Z,7
2022-11-12T04:44:12.098Z,7
2022-11-12T04:46:09.834Z,7
2022-11-12T04:48:07.295Z,6.9
2022-11-12T04:50:12.781Z,6.9
2022-11-12T04:52:10.384Z,6.9
2022-11-12T04:54:07.977Z,6.9
2022-11-12T04:56:05.567Z,6.9
2022-11-12T04:58:03.171Z,7
2022-11-12T05:06:01.622Z,7
2022-11-12T05:09:56.645Z,7
2022-11-12T05:11:54.222Z,7
2022-11-12T05:13:51.823Z,7
2022-11-12T05:19:52.516Z,6.9
2022-11-12T05:27:42.886Z,6.8
2022-11-12T05:29:40.456Z,6.7
2022-11-12T05:31:45.965Z,6.6
2022-11-12T05:33:43.574Z,6.6
2022-11-12T05:35:41.164Z,6.6
2022-11-12T05:36:43.913Z,6.6
2022-11-12T05:50:45.182Z,6.6
2022-11-12T05:52:32.514Z,6.5
2022-11-12T05:54:30.104Z,6.6
2022-11-12T05:56:27.692Z,6.5
2022-11-12T05:58:33.208Z,6.5
2022-11-12T06:00:30.805Z,6.6
2022-11-12T06:02:28.435Z,6.5
2022-11-12T06:04:25.981Z,6.5
2022-11-12T06:06:23.577Z,6.3
2022-11-12T06:08:21.176Z,6.3
2022-11-12T06:12:24.234Z,6.2
2022-11-12T06:16:19.408Z,6.1
2022-11-12T06:18:16.984Z,6.2
2022-11-12T06:20:14.556Z,6.2
2022-11-12T06:22:12.153Z,6.1
2022-11-12T06:24:09.749Z,6.1
2022-11-12T06:26:15.406Z,6.1
2022-11-12T06:28:12.885Z,6.3
2022-11-12T06:31:13.151Z,6.2
2022-11-12T06:33:10.742Z,6.2
2022-11-12T06:35:08.335Z,6.2
2022-11-12T06:37:05.893Z,6.2
2022-11-12T06:39:11.377Z,6.2
2022-11-12T06:41:08.964Z,6.3
2022-11-12T06:43:06.549Z,6.4
2022-11-12T06:45:04.149Z,6.3
2022-11-12T06:48:59.305Z,6.2
2022-11-12T06:50:56.900Z,6.4
2022-11-12T06:53:02.370Z,6.4
2022-11-12T06:56:57.557Z,6.4
2022-11-12T06:58:55.138Z,6.5
2022-11-12T07:00:52.731Z,6.4
2022-11-12T07:02:50.302Z,6.4
2022-11-12T07:04:47.895Z,6.5
2022-11-12T07:06:53.438Z,6.5
2022-11-12T07:08:50.961Z,6.4
2022-11-12T07:10:48.549Z,6.4
2022-11-12T07:12:52.026Z,6.5
2022-11-12T07:14:43.721Z,6.4
2022-11-12T07:16:41.305Z,6.4
2022-11-12T07:18:38.879Z,6.5
2022-11-12T07:20:44.377Z,6.4
2022-11-12T07:22:41.937Z,6.5
2022-11-12T07:24:39.545Z,6.5
2022-11-12T07:26:56.552Z,6.6
2022-11-12T07:28:54.135Z,6.5
2022-11-12T07:30:51.723Z,6.5
2022-11-12T07:32:57.234Z,6.6
2022-11-12T07:34:54.815Z,6.6
2022-11-12T07:36:52.377Z,6.6
2022-11-12T07:38:49.971Z,6.6
2022-11-12T07:40:47.558Z,6.6
2022-11-12T07:42:45.167Z,6.6
2022-11-12T07:46:48.238Z,6.6
2022-11-12T07:48:45.798Z,6.7
2022-11-12T07:50:43.391Z,6.7
2022-11-12T07:54:38.581Z,6.8
2022-11-12T07:56:36.167Z,6.8
2022-11-12T08:02:36.836Z,6.6
2022-11-12T08:04:34.419Z,6.5
2022-11-12T08:06:32.002Z,6.6
2022-11-12T08:08:29.946Z,6.6
2022-11-12T08:10:27.243Z,6.6
2022-11-12T08:12:24.782Z,6.7
2022-11-12T08:14:30.273Z,6.7
2022-11-12T08:16:27.875Z,6.8
2022-11-12T08:18:25.685Z,6.8
2022-11-12T08:19:28.193Z,6.7
2022-11-12T08:21:25.795Z,6.9
2022-11-12T08:23:23.366Z,6.9
2022-11-12T08:27:26.450Z,7.2
2022-11-12T08:29:24.062Z,7.2
2022-11-12T08:31:21.646Z,7.4
2022-11-12T08:33:19.228Z,7.3
2022-11-12T08:35:16.828Z,7.4
2022-11-12T08:37:14.427Z,7.5
2022-11-12T08:39:12.022Z,7.6
2022-11-12T08:41:17.534Z,7.7
2022-11-12T08:43:15.135Z,7.7
2022-11-12T08:45:12.725Z,7.8
2022-11-12T08:47:10.316Z,7.8
2022-11-12T08:49:07.911Z,7.9
2022-11-12T08:51:05.495Z,8
2022-11-12T08:53:03.079Z,8
2022-11-12T08:57:06.188Z,8.2
2022-11-12T08:59:07.180Z,8.2
2022-11-12T09:04:56.645Z,8.3
2022-11-12T09:06:54.396Z,8.4
2022-11-12T09:08:59.761Z,8.5
2022-11-12T09:10:57.386Z,8.5
2022-11-12T09:13:57.783Z,8.7
2022-11-12T09:15:55.364Z,8.8
2022-11-12T09:17:52.972Z,8.8
2022-11-12T09:19:50.573Z,8.9
2022-11-12T09:21:56.078Z,9
2022-11-12T09:23:53.674Z,9.1
2022-11-12T09:25:51.286Z,9.2
2022-11-12T09:27:48.888Z,9.2
2022-11-12T09:29:46.497Z,9.2
2022-11-12T09:31:44.128Z,9.2
2022-11-12T09:33:41.709Z,9.3
2022-11-12T09:35:47.241Z,9.5
2022-11-12T09:37:44.846Z,9.5
2022-11-12T09:39:42.963Z,9.6
2022-11-12T09:41:40.587Z,9.6
2022-11-12T09:43:38.193Z,9.6
2022-11-12T09:45:35.808Z,9.6
2022-11-12T09:49:38.944Z,9.8
2022-11-12T09:51:36.546Z,9.9
2022-11-12T09:53:34.156Z,9.9
2022-11-12T09:57:29.389Z,10.1
2022-11-12T09:59:28.565Z,10.1
2022-11-12T10:01:26.189Z,10.2
2022-11-12T10:03:31.649Z,10.2
2022-11-12T10:05:29.244Z,10.2
2022-11-12T10:07:26.855Z,10.2
2022-11-12T10:08:30.048Z,10.4
2022-11-12T10:10:27.231Z,10.5
2022-11-12T10:12:24.815Z,10.5
2022-11-12T10:14:22.449Z,10.6
2022-11-12T10:16:27.958Z,11
2022-11-12T10:18:25.941Z,11.1
2022-11-12T10:20:23.175Z,11
2022-11-12T10:22:20.821Z,11.2
2022-11-12T10:24:18.427Z,11.2
2022-11-12T10:26:16.074Z,11.3
2022-11-12T10:30:19.228Z,11.6
2022-11-12T10:32:16.855Z,11.7
2022-11-12T10:34:14.570Z,11.8
2022-11-12T10:36:12.256Z,11.8
2022-11-12T10:38:09.734Z,11.9
2022-11-12T10:40:07.351Z,12
2022-11-12T10:44:10.510Z,12.3
2022-11-12T10:46:08.141Z,12.5
2022-11-12T10:48:05.802Z,12.6
2022-11-12T10:50:03.423Z,12.8
2022-11-12T10:52:01.048Z,12.9
2022-11-12T10:53:58.660Z,12.9
2022-11-12T10:55:56.270Z,13
2022-11-12T10:59:59.434Z,13.4
2022-11-12T11:01:57.189Z,13.5
2022-11-12T11:04:20.502Z,14.4
2022-11-12T11:08:15.761Z,15.4
2022-11-12T11:12:18.926Z,16.4
2022-11-12T11:14:16.555Z,16.5
2022-11-12T11:18:11.809Z,17.1
2022-11-12T11:20:09.446Z,17.5
2022-11-12T11:22:07.103Z,17.8
2022-11-12T11:24:12.657Z,17.9
2022-11-12T11:26:10.224Z,18.1
2022-11-12T11:28:07.872Z,18.1
2022-11-12T11:30:05.499Z,18.1
2022-11-12T11:32:03.132Z,18.1
2022-11-12T11:34:00.755Z,18.5
2022-11-12T11:35:58.369Z,19
2022-11-12T11:41:59.116Z,19.8
2022-11-12T11:43:56.745Z,19.8
2022-11-12T11:49:49.475Z,19.9
2022-11-12T11:53:52.593Z,20.6
2022-11-12T11:55:50.195Z,21.1
2022-11-12T11:56:52.933Z,21.5
2022-11-12T11:58:50.512Z,21.6
2022-11-12T12:00:48.086Z,21.8
2022-11-12T12:02:45.633Z,22
2022-11-12T12:04:51.149Z,22.3
2022-11-12T12:06:48.789Z,22.5
2022-11-12T12:08:46.282Z,22.9
2022-11-12T12:11:06.809Z,22.9
2022-11-12T12:12:41.381Z,23.5
2022-11-12T12:14:38.945Z,23.4
2022-11-12T12:16:36.506Z,23.5
2022-11-12T12:20:39.544Z,24
2022-11-12T12:22:37.074Z,24.6
2022-11-12T12:28:30.006Z,24.5
2022-11-12T12:30:27.145Z,24.7
2022-11-12T12:32:32.603Z,24.9
2022-11-12T12:34:30.101Z,25.1
2022-11-12T12:36:27.596Z,25.4
2022-11-12T12:38:25.549Z,25.5
2022-11-12T12:44:17.490Z,23.6
2022-11-12T12:48:20.431Z,19.7
2022-11-12T12:50:17.929Z,18.5
2022-11-12T12:51:20.646Z,17.8
2022-11-12T12:53:18.127Z,17.6
2022-11-12T12:55:15.605Z,17.3
2022-11-12T12:57:13.125Z,17.2
2022-11-12T12:59:18.572Z,16.6
2022-11-12T13:05:11.192Z,16.4
2022-11-12T13:07:10.918Z,16.3
2022-11-12T13:09:06.212Z,16.3
2022-11-12T13:11:03.764Z,16.2
2022-11-12T13:13:09.186Z,16.2
2022-11-12T13:15:06.769Z,16.1
2022-11-12T13:17:04.338Z,16.1
2022-11-12T13:19:01.891Z,16.1
2022-11-12T13:20:59.472Z,16
2022-11-12T13:22:57.037Z,16.1
2022-11-12T13:24:54.625Z,16.1
2022-11-12T13:27:00.188Z,16.1
2022-11-12T13:28:57.687Z,16.1
2022-11-12T13:30:55.281Z,16.1
2022-11-12T13:34:50.454Z,15.9
2022-11-12T13:36:48.026Z,15.7
2022-11-12T13:38:45.618Z,15.9
2022-11-12T13:42:48.741Z,15.7
2022-11-12T13:45:49.087Z,15.6
2022-11-12T13:47:46.697Z,15.8
2022-11-12T13:49:44.290Z,15.7
2022-11-12T13:51:41.892Z,15.8
2022-11-12T13:53:47.420Z,15.8
2022-11-12T13:57:42.592Z,15.8
2022-11-12T13:59:40.205Z,15.7
2022-11-12T14:01:37.838Z,15.7
2022-11-12T14:03:35.441Z,15.6
2022-11-12T14:05:33.045Z,15.6
2022-11-12T14:07:38.591Z,15.5
2022-11-12T14:09:36.198Z,15.4
2022-11-12T14:11:33.840Z,15.5
2022-11-12T14:13:31.426Z,15.4
2022-11-12T14:15:29.062Z,15.5
2022-11-12T14:17:26.690Z,15.4
2022-11-12T14:19:24.306Z,15.3
2022-11-12T14:21:29.835Z,15.3
2022-11-12T14:23:27.441Z,15.4
2022-11-12T14:31:17.927Z,15.2
2022-11-12T14:33:15.526Z,15.2
2022-11-12T14:35:21.070Z,15.1
2022-11-12T14:37:18.676Z,15.1
2022-11-12T14:39:16.283Z,14.9
2022-11-12T14:41:43.254Z,15
2022-11-12T14:45:38.473Z,14.9
2022-11-12T14:47:43.983Z,14.9
2022-11-12T14:49:44.461Z,14.9
2022-11-12T14:51:39.238Z,14.9
2022-11-12T14:53:36.845Z,14.9
2022-11-12T14:57:32.112Z,14.9
2022-11-12T14:59:29.727Z,14.9
2022-11-12T15:02:14.612Z,14.9
2022-11-12T15:03:32.908Z,14.8
2022-11-12T15:05:30.563Z,14.8
2022-11-12T15:07:28.172Z,14.8
2022-11-12T15:09:25.806Z,14.8
2022-11-12T15:11:23.440Z,14.7
2022-11-12T15:13:21.087Z,14.8
2022-11-12T15:15:26.599Z,14.7
2022-11-12T15:17:24.276Z,14.6
2022-11-12T15:19:21.887Z,14.6
2022-11-12T15:21:19.533Z,14.6
2022-11-12T15:23:17.160Z,14.6
2022-11-12T15:25:14.822Z,14.5
2022-11-12T15:27:12.432Z,14.4
2022-11-12T15:29:17.950Z,14.5
2022-11-12T15:31:15.578Z,14.5
2022-11-12T15:33:13.210Z,14.4
2022-11-12T15:34:16.017Z,14.3
2022-11-12T15:36:13.632Z,14.3
2022-11-12T15:38:11.257Z,14.3
2022-11-12T15:40:10.448Z,14.3
2022-11-12T15:42:15.938Z,14.3
2022-11-12T15:44:13.572Z,14.2
2022-11-12T15:48:08.817Z,14.2
2022-11-12T15:56:07.237Z,14
2022-11-12T16:00:07.737Z,13.8
2022-11-12T16:02:00.179Z,13.8
2022-11-12T16:03:57.754Z,13.8
2022-11-12T16:05:55.418Z,13.9
2022-11-12T16:07:53.025Z,13.8
2022-11-12T16:09:58.532Z,13.7
2022-11-12T16:11:56.172Z,13.6
2022-11-12T16:13:53.803Z,13.7
2022-11-12T16:15:51.421Z,13.6
2022-11-12T16:17:49.050Z,13.5
2022-11-12T16:19:46.698Z,13.6
2022-11-12T16:21:44.375Z,13.6
2022-11-12T16:23:49.887Z,13.4
2022-11-12T16:25:47.644Z,13.4
2022-11-12T16:27:45.107Z,13.3
2022-11-12T16:28:47.901Z,13.4
2022-11-12T16:30:45.520Z,13.3
2022-11-12T16:32:43.143Z,13.2
2022-11-12T16:34:40.792Z,13.2
2022-11-12T16:36:46.335Z,13.3
2022-11-12T16:38:43.954Z,13.3
2022-11-12T16:40:41.596Z,13.2
2022-11-12T16:42:39.232Z,13.1
2022-11-12T16:44:36.826Z,13.1
2022-11-12T16:46:34.468Z,13
2022-11-12T16:48:32.133Z,13
2022-11-12T16:50:37.657Z,12.9
2022-11-12T16:52:35.278Z,12.9
2022-11-12T16:54:32.926Z,12.9
2022-11-12T16:56:30.537Z,13
2022-11-12T17:02:23.469Z,12.8
2022-11-12T17:08:24.287Z,12.7
2022-11-12T17:10:21.951Z,12.5
2022-11-12T17:12:19.573Z,12.4
2022-11-12T17:14:17.199Z,12.4
2022-11-12T17:16:14.800Z,12.3
2022-11-12T17:20:18.006Z,12.2
2022-11-12T17:22:15.609Z,12.1
2022-11-12T17:23:18.399Z,12.2
2022-11-12T17:27:13.643Z,11.9
2022-11-12T17:29:11.277Z,11.9
2022-11-12T17:31:16.777Z,11.8
2022-11-12T17:33:14.426Z,11.7
2022-11-12T17:35:12.027Z,11.8
2022-11-12T17:37:09.675Z,11.7
2022-11-12T17:39:07.311Z,11.7
2022-11-12T17:41:04.956Z,11.7
2022-11-12T17:43:02.567Z,11.7
2022-11-12T17:45:08.186Z,11.7
2022-11-12T17:47:05.806Z,11.8
2022-11-12T17:49:03.441Z,11.8
2022-11-12T17:51:01.088Z,11.7
2022-11-12T17:54:56.329Z,11.6
2022-11-12T17:56:53.973Z,11.4
2022-11-12T17:58:59.502Z,11.3
2022-11-12T18:00:57.362Z,11.4
2022-11-12T18:02:54.785Z,11.3
2022-11-12T18:04:52.416Z,11.3
2022-11-12T18:12:50.857Z,11.2
2022-11-12T18:14:48.453Z,11.2
2022-11-12T18:16:46.135Z,11.1
2022-11-12T18:21:10.658Z,11.1
2022-11-12T18:23:08.278Z,11.1
2022-11-12T18:25:13.811Z,10.9
2022-11-12T18:27:11.456Z,11
2022-11-12T18:29:09.050Z,10.9
2022-11-12T18:31:06.695Z,10.9
2022-11-12T18:33:04.326Z,10.9
2022-11-12T18:35:01.983Z,10.9
2022-11-12T18:36:59.597Z,10.8
2022-11-12T18:39:05.135Z,10.8
2022-11-12T18:43:00.354Z,10.7
2022-11-12T18:44:57.977Z,10.6
2022-11-12T18:46:55.585Z,10.7
2022-11-12T18:48:53.214Z,10.6
2022-11-12T18:50:51.047Z,10.6
2022-11-12T18:52:56.402Z,10.4
2022-11-12T18:54:54.032Z,10.5
2022-11-12T18:56:51.645Z,10.5
2022-11-12T19:00:46.930Z,10.5
2022-11-12T19:02:44.513Z,10.5
2022-11-12T19:04:45.406Z,10.6
2022-11-12T19:06:47.758Z,10.5
2022-11-12T19:08:45.307Z,10.5
2022-11-12T19:10:42.908Z,10.5
2022-11-12T19:11:45.696Z,10.3
2022-11-12T19:13:43.325Z,10.3
2022-11-12T19:15:40.922Z,10.3
2022-11-12T19:19:44.094Z,10.2
2022-11-12T19:25:36.952Z,10.1
2022-11-12T19:27:34.569Z,10.1
2022-11-12T19:29:32.211Z,10.1
2022-11-12T19:31:29.835Z,10.1
2022-11-12T19:33:35.387Z,10.1
2022-11-12T19:35:33.004Z,10.1
2022-11-12T19:37:34.381Z,9.9
2022-11-12T19:39:28.263Z,9.9
2022-11-12T19:41:25.894Z,9.9
2022-11-12T19:43:23.532Z,9.8
2022-11-12T19:45:21.134Z,9.7
2022-11-12T19:47:26.697Z,9.8
2022-11-12T19:49:24.285Z,9.8
2022-11-12T19:53:19.531Z,9.7
2022-11-12T19:57:14.752Z,9.8
2022-11-12T19:59:12.369Z,9.8
2022-11-12T20:01:18.044Z,9.9
2022-11-12T20:03:15.528Z,9.8
2022-11-12T20:05:13.179Z,9.7
2022-11-12T20:06:15.936Z,9.6
2022-11-12T20:08:13.578Z,9.6
2022-11-12T20:10:11.213Z,9.7
2022-11-12T20:12:08.824Z,9.7
2022-11-12T20:14:14.339Z,9.7
2022-11-12T20:16:11.952Z,9.7
2022-11-12T20:18:09.613Z,9.7
2022-11-12T20:20:07.255Z,9.7
2022-11-12T20:22:04.905Z,9.7
2022-11-12T20:24:02.538Z,9.6
2022-11-12T20:26:00.139Z,9.6
2022-11-12T20:28:05.653Z,9.6
2022-11-12T20:30:03.289Z,9.6
2022-11-12T20:32:00.915Z,9.4
2022-11-12T20:33:58.538Z,9.5
2022-11-12T20:35:56.148Z,9.5
2022-11-12T20:37:53.777Z,9.5
2022-11-12T20:39:51.366Z,9.5
2022-11-12T20:41:56.915Z,9.6
2022-11-12T20:43:54.545Z,9.5
2022-11-12T20:45:52.177Z,9.5
2022-11-12T20:47:49.790Z,9.4
2022-11-12T20:49:47.409Z,9.4
2022-11-12T20:51:45.053Z,9.3
2022-11-12T20:53:42.681Z,9.3
2022-11-12T20:55:48.174Z,9.4
2022-11-12T20:57:45.789Z,9.3
2022-11-12T20:59:43.421Z,9.3
2022-11-12T21:00:46.193Z,9.3
2022-11-12T21:02:43.824Z,9.2
2022-11-12T21:04:41.430Z,9.3
2022-11-12T21:06:39.084Z,9.4
2022-11-12T21:08:44.562Z,9.4
2022-11-12T21:12:39.811Z,9.3
2022-11-12T21:14:37.419Z,9.2
2022-11-12T21:16:35.028Z,9.3
2022-11-12T21:18:32.631Z,9.3
2022-11-12T21:22:37.311Z,9.2
2022-11-12T21:28:30.570Z,9.1
2022-11-12T21:34:22.981Z,9
2022-11-12T21:36:28.515Z,8.9
2022-11-12T21:38:26.365Z,9
2022-11-12T21:40:23.741Z,8.9
2022-11-12T21:46:16.614Z,8.9
2022-11-12T21:48:14.219Z,8.9
2022-11-12T21:50:19.734Z,9
2022-11-12T21:52:17.366Z,8.9
2022-11-12T21:54:14.988Z,9
2022-11-12T21:56:41.953Z,8.9
2022-11-12T21:58:39.578Z,8.9
2022-11-12T22:00:42.309Z,8.8
2022-11-12T22:02:42.804Z,8.8
2022-11-12T22:04:40.320Z,8.8
2022-11-12T22:06:37.967Z,8.8
2022-11-12T22:08:35.517Z,8.8
2022-11-12T22:12:30.769Z,8.7
2022-11-12T22:14:28.397Z,8.7
2022-11-12T22:16:33.922Z,8.7
2022-11-12T22:18:31.548Z,8.7
2022-11-12T22:22:26.786Z,8.7
2022-11-12T22:24:24.378Z,8.7
2022-11-12T22:28:19.625Z,8.8
2022-11-12T22:30:25.154Z,8.6
2022-11-12T22:32:22.752Z,8.8
2022-11-12T22:34:20.379Z,8.7
2022-11-12T22:40:13.698Z,8.7
2022-11-12T22:42:10.839Z,8.7
2022-11-12T22:44:16.352Z,8.6
2022-11-12T22:46:13.955Z,8.6
2022-11-12T22:48:11.566Z,8.6
2022-11-12T22:49:14.322Z,8.5
2022-11-12T22:51:12.019Z,8.6
2022-11-12T22:53:09.611Z,8.6
2022-11-12T22:57:12.742Z,8.5
2022-11-12T22:59:10.377Z,8.5
2022-11-12T23:01:07.969Z,8.6
2022-11-12T23:05:03.182Z,8.6
2022-11-12T23:07:00.839Z,8.6
2022-11-12T23:11:03.932Z,8.5
2022-11-12T23:13:01.577Z,8.5
2022-11-12T23:14:59.189Z,8.5
2022-11-12T23:16:56.809Z,8.5
2022-11-12T23:18:54.417Z,8.5
2022-11-12T23:20:52.041Z,8.5
2022-11-12T23:22:49.620Z,8.6
2022-11-12T23:24:55.148Z,8.6
2022-11-12T23:26:52.755Z,8.5
2022-11-12T23:28:50.359Z,8.6
2022-11-12T23:32:45.577Z,8.5
2022-11-12T23:38:46.315Z,8.3
2022-11-12T23:42:41.535Z,8.4
2022-11-12T23:43:44.296Z,8.4
2022-11-12T23:45:41.912Z,8.3
2022-11-12T23:47:39.554Z,8.3
2022-11-12T23:53:40.258Z,8.2
2022-11-12T23:57:35.515Z,8.2
2022-11-12T23:59:33.116Z,8.2
